Time;durP1;ratioP1;P1;durP2;ratioP2;P2;SDS_P1;SDS_P2;PMS_P1;PMS_P2;Temp;Humidity;BMP_temperature;BMP_pressure;BME280_temperature;BME280_humidity;BME280_pressure;Samples;Min_cycle;Max_cycle;Signal;HPM_P1;HPM_P2
2024/01/02 00:02:24;;;;;;;16.80;6.40;;;;;;;4.45;91.79;100015.85;104499;1298;61188;-56
2024/01/02 00:05:11;;;;;;;13.00;6.10;;;;;;;4.45;92.08;100016.70;104502;1294;62857;-56
2024/01/02 00:07:57;;;;;;;12.80;6.60;;;;;;;4.45;92.15;100012.61;104574;1294;73197;-54
2024/01/02 00:10:44;;;;;;;15.00;7.10;;;;;;;4.45;92.07;100009.70;104499;1298;69389;-55
2024/01/02 00:13:30;;;;;;;10.00;6.40;;;;;;;4.42;92.02;100012.09;104476;1294;71307;-55
2024/01/02 00:16:17;;;;;;;24.30;6.80;;;;;;;4.40;92.22;100007.83;104529;1294;61400;-56
2024/01/02 00:19:03;;;;;;;11.70;5.70;;;;;;;4.35;92.35;100005.79;104506;1294;61006;-55
2024/01/02 00:21:50;;;;;;;;;;;;;;;4.30;92.67;100001.86;104524;1294;73204;-55
2024/01/02 00:24:36;;;;;;;12.20;5.40;;;;;;;4.28;92.62;100004.77;104531;1293;67820;-55
2024/01/02 00:27:23;;;;;;;9.00;5.00;;;;;;;4.28;92.89;100003.06;104483;1296;75248;-54
2024/01/02 00:30:10;;;;;;;12.80;5.90;;;;;;;4.28;92.45;100003.92;104539;1294;61309;-54
2024/01/02 00:32:56;;;;;;;10.50;4.50;;;;;;;4.26;92.62;100003.58;105094;1294;61169;-55
2024/01/02 00:35:42;;;;;;;16.80;4.90;;;;;;;4.25;92.75;99999.65;104529;1294;75411;-53
2024/01/02 00:38:28;;;;;;;;;;;;;;;4.24;92.82;100005.27;104513;1294;70106;-56
2024/01/02 00:41:15;;;;;;;10.70;4.20;;;;;;;4.24;92.59;100010.73;104543;1294;71186;-56
2024/01/02 00:44:01;;;;;;;;;;;;;;;4.24;92.35;100015.52;104516;1294;60474;-53
2024/01/02 00:46:47;;;;;;;9.70;4.50;;;;;;;4.23;92.44;100015.17;104502;1299;61182;-53
2024/01/02 00:49:33;;;;;;;6.90;4.10;;;;;;;4.22;92.60;100016.36;104535;1294;73387;-55
2024/01/02 00:52:20;;;;;;;7.40;4.30;;;;;;;4.22;92.45;100014.15;104510;1298;71242;-55
2024/01/02 00:55:06;;;;;;;;;;;;;;;4.24;92.49;100017.56;104534;1295;71208;-56
2024/01/02 00:57:52;;;;;;;11.00;4.50;;;;;;;4.24;92.45;100015.68;105003;1299;59275;-56
2024/01/02 01:00:39;;;;;;;12.30;4.30;;;;;;;4.27;92.59;100017.91;104412;1299;62825;-52
2024/01/02 01:03:25;;;;;;;;;;;;;;;4.32;93.18;100020.30;104421;1296;75494;-55
2024/01/02 01:06:11;;;;;;;9.50;4.10;;;;;;;4.34;93.15;100021.83;104427;1295;67264;-56
2024/01/02 01:08:58;;;;;;;;;;;;;;;4.39;93.36;100018.76;104453;1294;75187;-55
2024/01/02 01:11:44;;;;;;;11.80;4.50;;;;;;;4.43;93.32;100021.48;104374;1296;61181;-55
2024/01/02 01:14:30;;;;;;;;;;;;;;;4.45;93.09;100021.48;104419;1296;61588;-55
2024/01/02 01:17:17;;;;;;;8.40;3.80;;;;;;;4.47;93.72;100024.73;104446;1298;73294;-53
2024/01/02 01:20:03;;;;;;;;;;;;;;;4.49;93.66;100024.04;104447;1299;67234;-54
2024/01/02 01:22:50;;;;;;;6.40;3.60;;;;;;;4.51;93.41;100022.67;104393;1297;71198;-55
2024/01/02 01:25:50;;;;;;;6.40;3.60;;;;;;;4.53;93.39;100024.38;78455;1299;10003710;-55
2024/01/02 01:28:56;;;;;;;8.00;3.70;;;;;;;4.54;93.21;100022.84;83341;1297;20071896;-53
2024/01/02 01:31:42;;;;;;;;;;;;;;;4.57;93.52;100020.11;104391;1295;63261;-55
2024/01/02 01:34:29;;;;;;;6.10;3.00;;;;;;;4.56;93.81;100015.84;104393;1297;61179;-53
2024/01/02 01:37:15;;;;;;;7.30;3.60;;;;;;;4.58;93.72;100021.13;104426;1296;72861;-55
2024/01/02 01:40:01;;;;;;;9.90;4.10;;;;;;;4.60;93.55;100024.55;104427;1298;70049;-56
2024/01/02 01:42:48;;;;;;;;;;;;;;;4.61;93.52;100023.17;104392;1296;71290;-52
2024/01/02 01:45:34;;;;;;;8.00;3.70;;;;;;;4.62;93.68;100025.39;104394;1299;61218;-54
2024/01/02 01:48:21;;;;;;;;;;;;;;;4.62;93.77;100022.83;104390;1296;61186;-55
2024/01/02 01:51:07;;;;;;;10.00;3.90;;;;;;;4.63;93.54;100021.63;104391;1297;73430;-55
2024/01/02 01:53:56;;;;;;;6.80;3.20;;;;;;;4.63;93.52;100021.30;104439;1295;67230;-55
2024/01/02 01:56:43;;;;;;;9.00;3.60;;;;;;;4.66;93.94;100012.59;104717;1299;70422;-53
2024/01/02 01:59:30;;;;;;;13.80;3.90;;;;;;;4.66;94.11;100008.48;104370;1297;61303;-56
2024/01/02 02:02:17;;;;;;;10.60;3.90;;;;;;;4.64;94.00;100009.34;104342;1295;62820;-55
2024/01/02 02:05:04;;;;;;;13.20;3.40;;;;;;;4.64;93.66;100011.90;104410;1296;73251;-56
2024/01/02 02:07:50;;;;;;;6.30;3.40;;;;;;;4.63;93.74;100014.98;104658;1299;67282;-55
2024/01/02 02:10:37;;;;;;;7.20;3.60;;;;;;;4.61;93.57;100020.79;104342;1295;71220;-53
2024/01/02 02:13:23;;;;;;;;;;;;;;;4.59;93.74;100017.36;104390;1297;61297;-55
2024/01/02 02:16:09;;;;;;;8.00;3.80;;;;;;;4.59;94.02;100016.17;104408;1299;61490;-56
2024/01/02 02:18:56;;;;;;;7.70;3.70;;;;;;;4.60;93.69;100017.71;104441;1299;73273;-55
2024/01/02 02:21:43;;;;;;;6.90;3.40;;;;;;;4.59;93.68;100020.62;104357;1295;66786;-54
2024/01/02 02:24:30;;;;;;;8.10;3.20;;;;;;;4.58;93.54;100026.08;104978;1295;71433;-55
2024/01/02 02:27:17;;;;;;;6.50;3.90;;;;;;;4.60;93.97;100031.20;104392;1299;60149;-55
2024/01/02 02:30:04;;;;;;;9.80;3.90;;;;;;;4.61;93.69;100033.08;104422;1297;61374;-55
2024/01/02 02:32:58;;;;;;;9.80;3.90;;;;;;;4.64;93.90;100029.48;37955;1297;20001844;-55
2024/01/02 02:35:44;;;;;;;8.90;3.40;;;;;;;4.66;93.82;100029.65;105677;1297;75758;-56
2024/01/02 02:38:30;;;;;;;10.80;3.90;;;;;;;4.68;93.81;100028.10;104791;1296;71088;-55
2024/01/02 02:41:17;;;;;;;8.00;3.70;;;;;;;4.70;93.73;100023.47;104377;1295;61132;-55
2024/01/02 02:44:03;;;;;;;9.10;3.90;;;;;;;4.71;93.59;100024.66;104377;1299;61306;-56
2024/01/02 02:46:49;;;;;;;;;;;;;;;4.73;93.71;100021.25;104425;1296;73800;-55
2024/01/02 02:49:37;;;;;;;7.50;3.60;;;;;;;4.75;93.70;100019.20;104391;1296;67415;-55
2024/01/02 02:52:24;;;;;;;8.20;4.00;;;;;;;4.74;93.72;100020.23;104356;1295;71174;-54
2024/01/02 02:55:10;;;;;;;;;;;;;;;4.73;93.60;100015.95;104332;1299;61154;-56
2024/01/02 02:57:56;;;;;;;;;;;;;;;4.71;93.53;100017.67;104380;1299;62811;-55
2024/01/02 03:00:42;;;;;;;7.10;3.20;;;;;;;4.70;93.81;100021.09;104426;1298;73062;-55
2024/01/02 03:03:28;;;;;;;;;;;;;;;4.68;93.64;100023.84;104424;1296;70076;-55
2024/01/02 03:06:15;;;;;;;7.70;3.20;;;;;;;4.67;94.33;100020.94;104396;1299;73157;-55
2024/01/02 03:09:03;;;;;;;8.20;3.60;;;;;;;4.64;94.09;100022.66;104419;1298;61205;-55
2024/01/02 03:11:49;;;;;;;9.20;3.80;;;;;;;4.62;94.27;100023.00;104430;1297;61156;-56
2024/01/02 03:14:36;;;;;;;7.00;3.20;;;;;;;4.61;93.96;100020.79;104422;1297;72342;-55
2024/01/02 03:17:22;;;;;;;7.50;4.10;;;;;;;4.61;93.81;100020.61;104397;1296;71417;-55
2024/01/02 03:20:09;;;;;;;12.00;4.60;;;;;;;4.60;93.88;100021.98;104400;1295;71263;-56
2024/01/02 03:22:55;;;;;;;;;;;;;;;4.58;94.54;100021.98;105556;1299;59453;-55
2024/01/02 03:25:41;;;;;;;8.40;4.30;;;;;;;4.57;94.40;100019.94;104423;1296;61846;-55
2024/01/02 03:28:28;;;;;;;14.00;4.90;;;;;;;4.59;94.17;100022.33;104405;1296;73336;-56
2024/01/02 03:31:14;;;;;;;9.40;4.30;;;;;;;4.59;94.31;100020.27;104438;1301;67520;-55
2024/01/02 03:34:01;;;;;;;;;;;;;;;4.60;94.12;100013.44;104434;1295;73500;-55
2024/01/02 03:36:47;;;;;;;9.90;4.70;;;;;;;4.58;94.28;100011.73;104360;1301;61325;-55
2024/01/02 03:39:33;;;;;;;;;;;;;;;4.56;94.08;100012.27;104386;1296;61069;-55
2024/01/02 03:42:20;;;;;;;12.40;5.20;;;;;;;4.54;93.84;100009.70;104312;1295;73398;-53
2024/01/02 03:45:06;;;;;;;;;;;;;;;4.51;94.11;100013.46;104254;1300;71197;-55
2024/01/02 03:47:52;;;;;;;8.20;4.10;;;;;;;4.50;93.99;100013.64;105740;1295;71212;-56
2024/01/02 03:50:39;;;;;;;10.00;3.90;;;;;;;4.47;94.00;100009.70;105692;1295;58926;-54
2024/01/02 03:53:25;;;;;;;10.50;4.70;;;;;;;4.48;93.99;100006.12;105745;1295;60084;-57
2024/01/02 03:56:11;;;;;;;7.80;4.60;;;;;;;4.48;93.90;100001.52;105748;1299;75194;-56
2024/01/02 03:58:57;;;;;;;8.40;4.50;;;;;;;4.48;93.83;100003.73;105700;1296;67592;-57
2024/01/02 04:01:44;;;;;;;8.80;3.80;;;;;;;4.48;93.90;100006.29;105724;1295;71515;-56
2024/01/02 04:04:30;;;;;;;7.20;4.10;;;;;;;4.48;94.11;100008.34;105716;1295;59259;-56
2024/01/02 04:07:16;;;;;;;11.10;4.20;;;;;;;4.49;94.40;100010.22;105734;1295;59336;-56
2024/01/02 04:10:03;;;;;;;5.70;4.10;;;;;;;4.49;94.67;100007.48;104952;1296;73585;-55
2024/01/02 04:12:49;;;;;;;15.40;4.50;;;;;;;4.50;94.42;100004.58;105675;1297;68659;-56
2024/01/02 04:15:36;;;;;;;6.40;4.50;;;;;;;4.50;94.43;100005.77;105697;1295;72512;-56
2024/01/02 04:18:22;;;;;;;7.30;4.60;;;;;;;4.50;94.29;100003.55;104533;1296;59745;-55
2024/01/02 04:21:08;;;;;;;10.70;4.90;;;;;;;4.48;94.60;100000.33;104374;1295;61263;-56
2024/01/02 04:23:55;;;;;;;8.00;4.80;;;;;;;4.48;94.32;99996.56;104422;1296;73589;-55
2024/01/02 04:26:41;;;;;;;11.80;5.50;;;;;;;4.47;94.19;99991.79;104439;1296;67824;-55
2024/01/02 04:29:27;;;;;;;;;;;;;;;4.44;94.19;99990.94;104460;1300;73970;-55
2024/01/02 04:32:14;;;;;;;;;;;;;;;4.42;94.20;99987.36;104425;1299;61767;-55
2024/01/02 04:35:01;;;;;;;9.40;5.40;;;;;;;4.38;94.24;99981.21;104415;1299;60173;-55
2024/01/02 04:37:48;;;;;;;;;;;;;;;4.34;94.14;99984.63;104455;1295;73289;-55
2024/01/02 04:40:34;;;;;;;7.10;5.90;;;;;;;4.32;94.31;99984.46;104395;1296;67304;-55
2024/01/02 04:43:24;;;;;;;;;;;;;;;4.28;94.35;99983.44;104435;1295;71200;-55
2024/01/02 04:46:11;;;;;;;9.40;6.20;;;;;;;4.26;94.26;99988.23;104359;1295;61256;-56
2024/01/02 04:48:57;;;;;;;;;;;;;;;4.24;94.22;99986.17;104395;1296;61394;-55
2024/01/02 04:51:44;;;;;;;9.80;5.60;;;;;;;4.21;94.59;99986.00;104402;1299;76244;-55
2024/01/02 04:54:30;;;;;;;12.90;6.80;;;;;;;4.20;94.61;99986.51;104401;1295;67403;-58
2024/01/02 04:57:17;;;;;;;;;;;;;;;4.19;94.33;99984.46;104375;1299;71985;-54
2024/01/02 05:00:05;;;;;;;15.80;6.00;;;;;;;4.17;94.70;99982.08;104404;1299;61217;-55
2024/01/02 05:02:51;;;;;;;14.90;6.10;;;;;;;4.16;94.64;99977.83;104590;1295;61156;-55
2024/01/02 05:05:38;;;;;;;;;;;;;;;4.13;94.68;99971.20;104448;1295;73203;-55
2024/01/02 05:08:24;;;;;;;9.60;5.30;;;;;;;4.10;94.76;99966.08;104416;1296;68941;-56
2024/01/02 05:11:10;;;;;;;;;;;;;;;4.08;94.43;99960.63;104433;1297;71289;-54
2024/01/02 05:13:56;;;;;;;;;;;;;;;4.06;94.29;99962.15;104375;1297;61043;-54
2024/01/02 05:16:43;;;;;;;9.60;5.50;;;;;;;4.01;94.23;99964.03;104414;1296;61394;-55
2024/01/02 05:19:29;;;;;;;12.00;5.30;;;;;;;3.97;94.09;99963.86;104418;1298;73189;-54
2024/01/02 05:22:16;;;;;;;11.90;4.90;;;;;;;3.94;94.08;99963.17;104433;1299;68086;-54
2024/01/02 05:25:02;;;;;;;;;;;;;;;3.91;94.06;99962.15;104379;1299;75651;-55
2024/01/02 05:27:48;;;;;;;8.10;5.70;;;;;;;3.89;94.11;99963.17;104397;1296;61316;-53
2024/01/02 05:30:35;;;;;;;11.30;5.40;;;;;;;3.85;93.92;99964.36;104359;1296;59358;-55
2024/01/02 05:33:21;;;;;;;7.70;4.50;;;;;;;3.81;93.78;99965.89;104377;1295;74168;-55
2024/01/02 05:36:07;;;;;;;8.60;5.20;;;;;;;3.75;93.91;99968.79;104389;1296;67981;-55
2024/01/02 05:38:53;;;;;;;;;;;;;;;3.74;94.10;99969.97;104450;1297;71131;-55
2024/01/02 05:41:40;;;;;;;10.20;6.50;;;;;;;3.75;94.20;99967.92;104354;1296;60875;-59
2024/01/02 05:44:26;;;;;;;14.80;6.90;;;;;;;3.76;94.06;99962.48;104344;1296;59051;-53
2024/01/02 05:47:13;;;;;;;;;;;;;;;3.76;94.16;99958.90;104349;1296;73263;-56
2024/01/02 05:49:59;;;;;;;8.50;5.70;;;;;;;3.76;94.04;99962.82;104316;1296;67821;-56
2024/01/02 05:52:46;;;;;;;14.70;8.10;;;;;;;3.75;94.07;99957.36;104336;1299;74001;-55
2024/01/02 05:55:32;;;;;;;19.90;10.10;;;;;;;3.74;94.12;99954.45;104293;1295;61155;-53
2024/01/02 05:58:18;;;;;;;35.00;16.50;;;;;;;3.72;94.34;99952.41;104309;1297;61191;-56
2024/01/02 06:01:05;;;;;;;;;;;;;;;3.68;94.34;99947.81;104396;1295;73550;-56
2024/01/02 06:03:51;;;;;;;36.50;19.20;;;;;;;3.63;94.70;99947.65;104395;1296;67314;-54
2024/01/02 06:06:37;;;;;;;36.70;15.30;;;;;;;3.56;94.65;99947.48;104354;1296;72988;-56
2024/01/02 06:09:24;;;;;;;;;;;;;;;3.51;94.36;99946.27;104387;1295;61174;-55
2024/01/02 06:12:10;;;;;;;31.10;18.60;;;;;;;3.48;94.16;99939.96;104439;1296;61269;-54
2024/01/02 06:14:57;;;;;;;22.10;13.50;;;;;;;3.45;94.26;99945.92;104425;1295;75061;-56
2024/01/02 06:17:43;;;;;;;17.20;13.30;;;;;;;3.36;94.61;99946.92;104374;1296;67202;-58
2024/01/02 06:20:30;;;;;;;;;;;;;;;3.29;94.59;99945.54;104401;1296;71307;-56
2024/01/02 06:23:16;;;;;;;18.10;10.40;;;;;;;3.24;94.62;99951.14;104413;1296;61319;-57
2024/01/02 06:26:02;;;;;;;;;;;;;;;3.21;94.78;99950.63;104357;1295;61138;-57
2024/01/02 06:28:48;;;;;;;;;;;;;;;3.18;94.37;99949.93;105716;1296;75211;-56
2024/01/02 06:31:34;;;;;;;14.20;8.00;;;;;;;3.11;94.17;99951.47;105749;1296;67474;-56
2024/01/02 06:34:20;;;;;;;12.40;8.10;;;;;;;3.09;94.34;99950.61;105694;1295;71508;-56
2024/01/02 06:37:06;;;;;;;287.00;13.20;;;;;;;3.06;94.12;99950.95;105722;1297;59278;-56
2024/01/02 06:39:53;;;;;;;11.30;7.60;;;;;;;3.02;93.56;99956.38;105707;1296;59311;-57
2024/01/02 06:42:39;;;;;;;10.00;5.50;;;;;;;2.98;93.52;99956.54;105734;1295;73434;-56
2024/01/02 06:45:25;;;;;;;6.80;5.30;;;;;;;2.94;93.57;99956.00;104977;1296;67367;-55
2024/01/02 06:48:11;;;;;;;16.70;6.50;;;;;;;2.93;93.51;99956.86;104343;1299;73028;-55
2024/01/02 06:50:57;;;;;;;13.10;7.80;;;;;;;2.85;93.23;99957.84;104427;1297;61151;-55
2024/01/02 06:53:44;;;;;;;14.40;5.10;;;;;;;2.79;93.43;99959.52;104415;1296;61159;-55
2024/01/02 06:56:30;;;;;;;10.30;5.40;;;;;;;2.75;94.33;99947.07;104395;1296;75149;-55
2024/01/02 06:59:16;;;;;;;12.50;5.10;;;;;;;2.77;94.37;99945.88;104327;1296;69733;-55
2024/01/02 07:02:03;;;;;;;;;;;;;;;2.75;93.85;99949.10;104468;1296;71206;-55
2024/01/02 07:04:49;;;;;;;13.20;4.90;;;;;;;2.69;93.61;99958.42;104356;1296;61102;-56
2024/01/02 07:07:36;;;;;;;13.60;6.00;;;;;;;2.65;93.68;99962.33;104406;1296;62495;-56
2024/01/02 07:10:24;;;;;;;8.60;5.00;;;;;;;2.61;93.91;99961.80;104425;1297;72128;-55
2024/01/02 07:13:10;;;;;;;9.40;5.20;;;;;;;2.62;95.06;99962.82;104395;1297;71185;-55
2024/01/02 07:15:57;;;;;;;;;;;;;;;2.59;94.89;99961.13;104927;1296;71347;-56
2024/01/02 07:18:42;;;;;;;;;;;;;;;2.57;94.90;99955.67;105726;1295;58995;-56
2024/01/02 07:21:29;;;;;;;;;;;;;;;2.58;95.05;99956.19;105771;1295;58800;-55
2024/01/02 07:24:16;;;;;;;16.80;6.50;;;;;;;2.57;94.58;99951.60;105742;1295;74136;-57
2024/01/02 07:27:02;;;;;;;13.10;7.00;;;;;;;2.58;94.53;99950.92;105581;1296;67273;-57
2024/01/02 07:29:48;;;;;;;16.80;7.50;;;;;;;2.58;94.53;99950.23;105694;1296;70276;-57
2024/01/02 07:32:34;;;;;;;15.90;7.90;;;;;;;2.60;94.58;99945.98;105665;1296;58852;-57
2024/01/02 07:35:20;;;;;;;13.70;7.20;;;;;;;2.60;94.47;99945.96;105684;1295;59058;-55
2024/01/02 07:38:06;;;;;;;20.50;7.10;;;;;;;2.62;94.53;99942.06;105669;1296;74517;-57
2024/01/02 07:40:54;;;;;;;17.80;7.10;;;;;;;2.64;94.12;99935.44;105676;1297;67547;-58
2024/01/02 07:43:40;;;;;;;21.00;8.30;;;;;;;2.66;94.03;99933.58;32329;1296;10002549;-57
2024/01/02 07:46:27;;;;;;;21.60;7.00;;;;;;;2.69;93.86;99929.52;105664;1295;60050;-56
2024/01/02 07:49:13;;;;;;;16.50;8.20;;;;;;;2.71;93.79;99931.21;105678;1295;72219;-57
2024/01/02 07:51:59;;;;;;;21.30;7.90;;;;;;;2.72;94.12;99931.39;105575;1296;67336;-56
2024/01/02 07:54:45;;;;;;;13.00;7.20;;;;;;;2.74;94.27;99936.34;105647;1297;72390;-57
2024/01/02 07:57:31;;;;;;;15.50;6.80;;;;;;;2.80;94.10;99939.43;105683;1296;58842;-58
2024/01/02 08:00:18;;;;;;;30.20;8.80;;;;;;;2.87;93.97;99934.86;105679;1295;59353;-57
2024/01/02 08:03:04;;;;;;;20.50;8.40;;;;;;;2.93;94.58;99929.45;105674;1295;75101;-58
2024/01/02 08:05:50;;;;;;;17.70;8.80;;;;;;;2.96;94.81;99927.92;105572;1295;68418;-57
2024/01/02 08:08:36;;;;;;;16.20;8.40;;;;;;;3.03;94.44;99935.45;105743;1296;72447;-58
2024/01/02 08:11:22;;;;;;;21.90;9.70;;;;;;;3.11;94.51;99935.96;105684;1296;59072;-58
2024/01/02 08:14:09;;;;;;;16.00;9.00;;;;;;;3.14;94.65;99932.90;105674;1295;59312;-57
2024/01/02 08:16:55;;;;;;;20.50;9.60;;;;;;;3.16;94.68;99927.79;105629;1295;73067;-57
2024/01/02 08:19:41;;;;;;;16.90;7.90;;;;;;;3.22;94.46;99922.36;105420;1296;393509;-56
2024/01/02 08:22:27;;;;;;;18.60;8.00;;;;;;;3.31;94.35;99921.70;105682;1297;71385;-57
2024/01/02 08:25:13;;;;;;;17.20;8.20;;;;;;;3.35;94.33;99920.68;104551;1296;61303;-56
2024/01/02 08:28:00;;;;;;;;;;;;;;;3.41;94.38;99916.44;104417;1296;61274;-53
2024/01/02 08:30:46;;;;;;;15.70;8.30;;;;;;;3.46;94.37;99912.88;104405;1297;73191;-55
2024/01/02 08:33:32;;;;;;;12.70;7.10;;;;;;;3.49;94.34;99915.27;104316;1297;70621;-56
2024/01/02 08:36:19;;;;;;;;;;;;;;;3.52;94.45;99918.85;104343;1297;72216;-56
2024/01/02 08:39:06;;;;;;;9.70;6.30;;;;;;;3.59;94.52;99914.43;104370;1296;61237;-57
2024/01/02 08:41:52;;;;;;;;;;;;;;;3.62;94.48;99915.45;104416;1295;59308;-57
2024/01/02 08:44:39;;;;;;;15.70;6.50;;;;;;;3.68;94.51;99917.13;104328;1296;73613;-56
2024/01/02 08:47:25;;;;;;;;;;;;;;;3.78;94.60;99916.96;104347;1296;70056;-56
2024/01/02 08:50:11;;;;;;;16.40;7.30;;;;;;;3.88;94.63;99911.69;104395;1297;74031;-56
2024/01/02 08:52:58;;;;;;;12.80;5.80;;;;;;;3.88;94.60;99906.73;104338;1295;61108;-56
2024/01/02 08:55:45;;;;;;;14.60;7.20;;;;;;;3.89;94.56;99904.52;104394;1297;61218;-56
2024/01/02 08:58:31;;;;;;;;;;;;;;;3.96;94.65;99902.48;104373;1296;73304;-54
2024/01/02 09:01:18;;;;;;;11.30;6.20;;;;;;;3.98;94.64;99898.72;104381;1296;69938;-56
2024/01/02 09:04:04;;;;;;;19.60;6.90;;;;;;;4.00;94.66;99891.90;104415;1296;74060;-57
2024/01/02 09:06:53;;;;;;;13.20;6.40;;;;;;;4.05;94.65;99888.65;104234;1296;61394;-57
2024/01/02 09:09:40;;;;;;;10.80;5.70;;;;;;;4.10;94.67;99888.48;104420;1295;61191;-56
2024/01/02 09:12:26;;;;;;;10.40;5.00;;;;;;;4.18;94.72;99888.77;104407;1299;76081;-56
2024/01/02 09:15:13;;;;;;;14.30;5.80;;;;;;;4.23;94.74;99890.81;104343;1296;67366;-57
2024/01/02 09:17:59;;;;;;;14.20;6.70;;;;;;;4.24;94.69;99882.80;104412;1295;71218;-57
2024/01/02 09:20:47;;;;;;;15.90;7.50;;;;;;;4.28;94.67;99879.70;104404;1297;61233;-55
2024/01/02 09:23:36;;;;;;;14.50;6.10;;;;;;;4.32;94.68;99880.90;104309;1296;61505;-56
2024/01/02 09:26:24;;;;;;;11.20;6.30;;;;;;;4.37;94.70;99878.15;104384;1295;73202;-55
2024/01/02 09:29:10;;;;;;;15.30;5.90;;;;;;;4.43;94.75;99873.20;104442;1297;67954;-55
2024/01/02 09:31:57;;;;;;;18.10;6.60;;;;;;;4.46;94.73;99868.91;104384;1295;74613;-55
2024/01/02 09:34:43;;;;;;;14.30;6.30;;;;;;;4.50;94.74;99862.42;104395;1295;61152;-57
2024/01/02 09:37:29;;;;;;;;;;;;;;;4.52;94.72;99855.76;104431;1296;61144;-54
2024/01/02 09:40:40;;;;;;;17.30;7.00;;;;;;;4.53;94.75;99852.34;104191;1296;309242;-56
2024/01/02 09:43:57;;;;;;;12.30;6.70;;;;;;;4.61;94.88;99839.17;105546;1292;75044;-57
2024/01/02 09:47:07;;;;;;;13.20;6.10;;;;;;;4.75;94.94;99831.73;105920;1293;73261;-57
2024/01/02 09:50:08;;;;;;;15.70;6.70;;;;;;;4.83;94.83;99831.35;105966;1292;58917;-57
2024/01/02 09:52:57;;;;;;;14.30;6.80;;;;;;;4.86;94.58;99830.14;105999;1293;59090;-58
2024/01/02 09:56:19;;;;;;;13.00;8.50;;;;;;;4.85;94.25;99829.98;105086;1293;75197;-56
2024/01/02 09:59:14;;;;;;;25.30;10.10;;;;;;;4.88;94.43;99829.79;104166;1300;68734;-57
2024/01/02 10:02:24;;;;;;;29.90;12.50;;;;;;;4.90;94.61;99828.92;104077;1303;71381;-54
2024/01/02 10:05:19;;;;;;;24.60;11.40;;;;;;;4.88;94.52;99830.81;104061;1300;61169;-56
2024/01/02 10:08:30;;;;;;;25.80;13.00;;;;;;;4.82;94.35;99830.33;104138;1301;61679;-56
2024/01/02 10:11:31;;;;;;;21.90;11.60;;;;;;;4.77;94.47;99829.67;104147;1302;76955;-56
2024/01/02 10:14:48;;;;;;;21.90;10.30;;;;;;;4.81;94.73;99827.44;104152;1300;70559;-56
2024/01/02 10:17:34;;;;;;;19.70;9.70;;;;;;;4.83;94.69;99824.86;104124;1303;70223;-56
2024/01/02 10:20:39;;;;;;;22.50;10.20;;;;;;;4.81;94.56;99824.36;104152;1298;61174;-56
2024/01/02 10:24:00;;;;;;;18.40;10.20;;;;;;;4.83;94.70;99820.77;104127;1299;61140;-55
2024/01/02 10:27:18;;;;;;;19.80;10.80;;;;;;;4.83;94.69;99816.83;104134;1299;73297;-56
2024/01/02 10:30:06;;;;;;;22.10;10.40;;;;;;;4.83;94.64;99805.39;104147;1300;67287;-56
2024/01/02 10:32:58;;;;;;;22.00;10.80;;;;;;;4.91;94.74;99796.30;105438;1299;72287;-57
2024/01/02 10:35:52;;;;;;;14.60;9.20;;;;;;;5.00;94.73;99792.14;105719;1293;59436;-57
2024/01/02 10:39:04;;;;;;;18.90;9.90;;;;;;;5.01;94.40;99787.54;105920;1293;59080;-57
2024/01/02 10:42:32;;;;;;;22.90;10.60;;;;;;;4.94;93.94;99782.44;105932;1293;73391;-58
2024/01/02 10:45:29;;;;;;;18.00;10.00;;;;;;;5.01;94.18;99774.89;105893;1293;67463;-58
2024/01/02 10:48:34;;;;;;;18.80;8.90;;;;;;;5.07;94.37;99768.36;105932;1293;71091;-57
2024/01/02 10:51:41;;;;;;;17.90;8.80;;;;;;;5.10;94.12;99763.89;105925;1293;59124;-58
2024/01/02 10:54:51;;;;;;;18.20;9.10;;;;;;;5.14;94.19;99757.02;105905;1293;58918;-58
2024/01/02 10:57:37;;;;;;;24.20;8.90;;;;;;;5.21;94.10;99749.42;105881;1294;73287;-57
2024/01/02 11:00:26;;;;;;;17.00;8.20;;;;;;;5.27;93.67;99741.69;105950;1293;67100;-57
2024/01/02 11:03:16;;;;;;;16.30;8.10;;;;;;;5.24;93.64;99734.19;105953;1293;72034;-58
2024/01/02 11:06:39;;;;;;;18.90;7.40;;;;;;;5.28;94.22;99731.60;105870;1295;60325;-58
2024/01/02 11:10:01;;;;;;;16.50;7.40;;;;;;;5.37;94.29;99726.23;105918;1293;59048;-58
2024/01/02 11:13:07;;;;;;;15.00;7.80;;;;;;;5.42;94.03;99714.72;105369;1299;72269;-58
2024/01/02 11:16:08;;;;;;;18.90;9.00;;;;;;;5.43;93.70;99704.29;105387;1299;67460;-57
2024/01/02 11:18:59;;;;;;;17.90;8.40;;;;;;;5.61;94.63;99694.53;105382;1299;71221;-58
2024/01/02 11:22:24;;;;;;;20.70;9.70;;;;;;;5.84;94.75;99684.17;105300;1302;59364;-58
2024/01/02 11:25:14;;;;;;;17.40;8.80;;;;;;;6.04;94.61;99675.40;105304;1299;86002;-57
2024/01/02 11:28:02;;;;;;;17.80;8.90;;;;;;;6.09;93.53;99670.38;105349;1300;74560;-57
2024/01/02 11:30:50;;;;;;;22.10;8.90;;;;;;;6.08;93.89;99665.60;105372;1300;68392;-56
2024/01/02 11:33:54;;;;;;;19.10;8.50;;;;;;;6.09;93.70;99667.80;104337;1300;72694;-56
2024/01/02 11:37:00;;;;;;;21.10;8.90;;;;;;;6.10;93.82;99662.48;104022;1300;61261;-55
2024/01/02 11:40:15;;;;;;;16.30;8.00;;;;;;;6.13;94.00;99658.17;104038;1300;61652;-55
2024/01/02 11:43:32;;;;;;;19.20;8.30;;;;;;;6.19;94.28;99654.66;104007;1300;73553;-57
2024/01/02 11:46:23;;;;;;;15.00;7.70;;;;;;;6.48;94.34;99647.04;104060;1300;68046;-57
2024/01/02 11:49:16;;;;;;;15.90;7.90;;;;;;;6.81;94.22;99642.73;104425;1294;73995;-57
2024/01/02 11:52:17;;;;;;;14.20;7.20;;;;;;;6.94;94.13;99639.09;104521;1293;61334;-55
2024/01/02 11:55:14;;;;;;;15.50;7.60;;;;;;;6.88;93.19;99634.21;104488;1294;61171;-57
2024/01/02 11:58:11;;;;;;;15.50;6.80;;;;;;;6.77;93.68;99629.27;104539;1294;73203;-57
2024/01/02 12:01:28;;;;;;;13.60;6.30;;;;;;;6.63;92.25;99633.29;105920;1294;67423;-57
2024/01/02 12:04:22;;;;;;;10.20;6.00;;;;;;;6.45;92.90;99634.25;105937;1293;71456;-58
2024/01/02 12:07:12;;;;;;;14.80;5.50;;;;;;;6.37;93.35;99628.04;104709;1294;61614;-56
2024/01/02 12:10:00;;;;;;;16.80;5.80;;;;;;;6.26;93.32;99627.86;104516;1293;62862;-57
2024/01/02 12:13:06;;;;;;;12.10;5.60;;;;;;;6.19;93.55;99626.61;104513;1292;72357;-57
2024/01/02 12:15:54;;;;;;;15.70;6.20;;;;;;;6.13;93.66;99621.73;104566;1294;67301;-57
2024/01/02 12:18:45;;;;;;;12.90;5.40;;;;;;;6.08;93.69;99617.69;104546;1294;72150;-57
2024/01/02 12:21:39;;;;;;;16.90;6.10;;;;;;;5.98;93.52;99616.12;104531;1294;63419;-57
2024/01/02 12:24:28;;;;;;;13.10;5.10;;;;;;;5.89;93.52;99612.63;105004;1294;60223;-54
2024/01/02 12:27:20;;;;;;;12.50;5.70;;;;;;;5.78;92.87;99611.38;104545;1294;75009;-55
2024/01/02 12:30:08;;;;;;;15.10;5.80;;;;;;;5.74;93.42;99602.02;104481;1294;67380;-55
2024/01/02 12:33:09;;;;;;;11.90;4.80;;;;;;;5.70;93.32;99600.58;105874;1293;72069;-56
2024/01/02 12:36:01;;;;;;;10.60;4.90;;;;;;;5.62;93.11;99593.64;105876;1293;58391;-57
2024/01/02 12:38:50;;;;;;;13.50;5.30;;;;;;;5.57;93.13;99585.85;105888;1293;59375;-56
2024/01/02 12:41:44;;;;;;;13.50;4.40;;;;;;;5.54;92.99;99578.89;105872;1293;74495;-56
2024/01/02 12:44:34;;;;;;;13.90;5.10;;;;;;;5.53;93.15;99571.02;105889;1293;67384;-57
2024/01/02 12:47:22;;;;;;;15.20;5.90;;;;;;;5.57;93.30;99560.21;105882;1294;72480;-55
2024/01/02 12:50:08;;;;;;;19.90;6.60;;;;;;;5.56;93.03;99547.06;102004;1295;5003543;-57
2024/01/02 12:53:08;;;;;;;19.90;6.50;;;;;;;5.58;93.04;99543.11;105780;1293;59255;-56
2024/01/02 12:55:57;;;;;;;17.10;6.30;;;;;;;5.57;92.87;99544.83;105928;1293;74451;-57
2024/01/02 12:58:53;;;;;;;15.90;6.10;;;;;;;5.57;93.00;99539.52;105653;1292;172803;-56
2024/01/02 13:01:40;;;;;;;20.30;6.80;;;;;;;5.58;92.99;99533.20;105970;1294;72642;-57
2024/01/02 13:04:27;;;;;;;13.60;6.30;;;;;;;5.57;92.76;99539.70;105981;1294;58873;-57
2024/01/02 13:07:13;;;;;;;;;;;;;;;5.52;92.56;99533.44;105987;1293;59758;-57
2024/01/02 13:10:00;;;;;;;17.40;6.10;;;;;;;5.51;92.75;99535.67;105974;1293;73260;-57
2024/01/02 13:12:47;;;;;;;18.50;6.40;;;;;;;5.51;92.62;99530.38;105891;1292;69031;-56
2024/01/02 13:15:33;;;;;;;18.20;6.00;;;;;;;5.51;92.40;99526.10;105927;1293;71362;-57
2024/01/02 13:18:21;;;;;;;19.90;6.40;;;;;;;5.51;92.40;99522.86;105980;1293;59254;-56
2024/01/02 13:21:09;;;;;;;14.10;6.40;;;;;;;5.51;92.50;99523.02;106005;1292;59757;-57
2024/01/02 13:23:57;;;;;;;14.50;5.90;;;;;;;5.51;92.46;99521.33;105990;1293;73118;-56